Time;durP1;ratioP1;P1;durP2;ratioP2;P2;SDS_P1;SDS_P2;PMS_P1;PMS_P2;Temp;Humidity;BMP_temperature;BMP_pressure;BME280_temperature;BME280_humidity;BME280_pressure;Samples;Min_cycle;Max_cycle;Signal;HPM_P1;HPM_P2
2022/01/30 11:46:39;;;;;;;27.67;5.10;;;5.00;99.90;;;;;;5071150;28;20534;-67
2022/01/30 11:49:14;;;;;;;42.15;7.93;;;5.10;99.90;;;;;;5071041;28;20579;-67
2022/01/30 11:51:52;;;;;;;43.88;5.68;;;5.10;99.90;;;;;;5070920;28;20229;-67
2022/01/30 11:54:37;;;;;;;31.90;6.18;;;5.20;99.90;;;;;;5070875;28;20251;-67
2022/01/30 11:57:20;;;;;;;25.20;5.50;;;5.30;99.90;;;;;;5070855;28;20176;-67
2022/01/30 11:59:48;;;;;;;34.08;6.20;;;5.30;99.90;;;;;;5069407;28;20179;-67
2022/01/30 12:02:33;;;;;;;34.70;5.15;;;5.30;99.90;;;;;;5070685;28;20196;-67
2022/01/30 12:05:09;;;;;;;25.70;7.22;;;5.30;99.90;;;;;;5070681;28;20223;-67
2022/01/30 12:07:37;;;;;;;27.67;6.07;;;5.40;99.90;;;;;;5070629;28;20218;-67
2022/01/30 12:10:21;;;;;;;22.30;6.05;;;5.40;99.90;;;;;;5070465;28;20641;-67
2022/01/30 12:12:55;;;;;;;28.40;6.65;;;5.30;99.90;;;;;;5070506;28;20172;-67
2022/01/30 12:15:40;;;;;;;23.55;5.63;;;5.30;99.90;;;;;;5070749;28;20264;-67
2022/01/30 12:18:10;;;;;;;20.80;7.28;;;5.30;99.90;;;;;;5070628;28;20214;-67
2022/01/30 12:21:11;;;;;;;34.70;6.47;;;5.30;99.90;;;;;;5070326;28;20192;-67
2022/01/30 12:23:42;;;;;;;31.25;7.25;;;5.40;99.90;;;;;;5070271;28;20175;-67
2022/01/30 12:26:10;;;;;;;19.05;5.75;;;5.40;99.90;;;;;;5070234;28;20196;-67
2022/01/30 12:28:44;;;;;;;26.33;5.82;;;5.40;99.90;;;;;;5069004;28;20581;-67
2022/01/30 12:31:36;;;;;;;29.95;6.70;;;5.50;99.90;;;;;;5070203;28;20259;-67
2022/01/30 12:34:16;;;;;;;31.60;5.50;;;5.50;99.90;;;;;;5070092;28;20165;-67
2022/01/30 12:36:52;;;;;;;26.27;5.55;;;5.50;99.90;;;;;;5068867;28;20260;-67
2022/01/30 12:39:24;;;;;;;26.60;7.10;;;5.50;99.90;;;;;;5068764;28;20179;-67
2022/01/30 12:41:51;;;;;;;27.30;5.00;;;5.40;99.90;;;;;;5069757;28;20200;-68
2022/01/30 12:44:23;;;;;;;25.58;6.10;;;5.50;99.90;;;;;;5069696;28;20156;-68
2022/01/30 12:46:53;;;;;;;23.30;5.05;;;5.50;99.90;;;;;;5069802;28;20295;-67
2022/01/30 12:49:28;;;;;;;23.80;4.18;;;5.50;99.90;;;;;;5068743;28;20172;-67
2022/01/30 12:51:56;;;;;;;29.65;5.38;;;5.50;99.90;;;;;;5068572;28;20176;-67
2022/01/30 12:54:24;;;;;;;35.00;5.55;;;5.40;99.90;;;;;;5069646;28;20160;-67
2022/01/30 12:56:52;;;;;;;31.08;6.47;;;5.40;99.90;;;;;;5062584;28;20161;-67
2022/01/30 12:59:19;;;;;;;23.70;6.10;;;5.50;99.90;;;;;;5056495;28;20165;-67
2022/01/30 13:01:46;;;;;;;30.75;6.35;;;5.40;99.90;;;;;;5056293;28;20652;-67
2022/01/30 13:04:15;;;;;;;22.42;5.10;;;5.40;99.90;;;;;;5056301;28;20179;-67
2022/01/30 13:06:49;;;;;;;22.67;4.65;;;5.40;99.90;;;;;;5056341;28;20201;-67
2022/01/30 13:09:28;;;;;;;18.73;4.35;;;5.30;99.90;;;;;;5056118;28;20244;-67
2022/01/30 13:11:55;;;;;;;21.55;5.05;;;5.30;99.90;;;;;;5056237;28;20165;-67
2022/01/30 13:14:22;;;;;;;25.15;5.68;;;5.40;99.90;;;;;;5056238;28;20169;-67
2022/01/30 13:16:51;;;;;;;25.60;6.38;;;5.40;99.90;;;;;;5056109;28;20174;-67
2022/01/30 13:19:42;;;;;;;29.27;5.53;;;5.30;99.90;;;;;;5055943;28;20174;-67
2022/01/30 13:22:23;;;;;;;17.17;5.05;;;5.30;99.90;;;;;;5053996;28;20754;-67
2022/01/30 13:24:58;;;;;;;24.85;5.78;;;5.40;99.90;;;;;;5055799;28;20205;-66
2022/01/30 13:27:24;;;;;;;14.95;4.43;;;5.50;99.90;;;;;;5055900;28;20252;-67
2022/01/30 13:29:53;;;;;;;25.60;4.90;;;5.60;99.90;;;;;;5055862;28;20227;-67
2022/01/30 13:32:24;;;;;;;28.15;6.82;;;5.60;99.90;;;;;;5055821;28;20169;-68
2022/01/30 13:34:50;;;;;;;24.42;4.93;;;5.60;99.90;;;;;;5055355;28;20223;-67
2022/01/30 13:37:20;;;;;;;14.60;4.78;;;5.50;99.90;;;;;;5055833;28;20169;-67
2022/01/30 13:42:35;;;;;;;42.55;6.93;;;5.40;99.90;;;;;;5055726;28;20177;-67
2022/01/30 14:01:57;;;;;;;25.95;5.20;;;5.20;99.90;;;;;;5111582;27;20975;-67
2022/01/30 14:04:23;;;;;;;27.20;5.13;;;5.40;99.90;;;;;;5111463;28;20163;-67
2022/01/30 14:06:49;;;;;;;25.90;5.38;;;5.40;99.90;;;;;;5111387;28;20561;-67
2022/01/30 14:09:19;;;;;;;27.48;4.97;;;5.30;99.90;;;;;;5111398;28;20182;-67
2022/01/30 14:11:52;;;;;;;24.77;5.70;;;5.30;99.90;;;;;;5111631;28;20155;-67
2022/01/30 14:14:21;;;;;;;20.48;4.78;;;5.30;99.90;;;;;;5110115;28;20171;-67
2022/01/30 14:16:53;;;;;;;37.00;6.32;;;5.30;99.90;;;;;;5111284;28;20194;-67
2022/01/30 14:19:32;;;;;;;30.35;7.32;;;5.30;99.90;;;;;;5111225;28;20179;-67
2022/01/30 14:22:24;;;;;;;28.10;5.63;;;5.40;99.90;;;;;;5111174;28;20189;-67
2022/01/30 14:24:52;;;;;;;30.10;6.50;;;5.40;99.90;;;;;;5109943;28;20194;-67
2022/01/30 14:27:19;;;;;;;33.90;6.50;;;5.40;99.90;;;;;;5111082;28;20250;-67
2022/01/30 14:29:45;;;;;;;24.13;6.40;;;5.50;99.90;;;;;;5109909;28;20171;-67
2022/01/30 14:32:14;;;;;;;28.70;6.63;;;5.60;99.90;;;;;;5111275;28;20171;-67
2022/01/30 14:34:41;;;;;;;36.00;6.50;;;5.60;99.90;;;;;;5110867;28;20228;-67
2022/01/30 14:37:08;;;;;;;22.80;6.03;;;5.50;99.90;;;;;;5110644;28;20232;-67
2022/01/30 14:39:35;;;;;;;23.58;4.97;;;5.50;99.90;;;;;;5110456;28;20168;-67
2022/01/30 14:42:03;;;;;;;25.92;5.45;;;5.50;99.90;;;;;;5110749;28;20168;-67
2022/01/30 14:44:29;;;;;;;18.25;5.75;;;5.50;99.90;;;;;;5110501;28;20700;-67
2022/01/30 14:46:55;;;;;;;21.80;5.63;;;5.40;99.90;;;;;;5110477;28;20202;-67
2022/01/30 14:49:20;;;;;;;33.70;5.78;;;5.40;99.90;;;;;;5110553;28;20305;-67
2022/01/30 14:51:48;;;;;;;29.20;9.05;;;5.40;99.90;;;;;;5109491;28;20175;-67
2022/01/30 14:54:15;;;;;;;28.05;5.47;;;5.40;99.90;;;;;;5110491;28;20163;-67
2022/01/30 14:56:40;;;;;;;14.57;5.30;;;5.40;99.90;;;;;;5110567;28;20171;-67
2022/01/30 14:59:06;;;;;;;24.42;5.90;;;5.40;99.90;;;;;;5110390;28;20171;-67
2022/01/30 15:01:32;;;;;;;22.58;5.82;;;5.40;99.90;;;;;;5110242;28;20268;-67
2022/01/30 15:03:58;;;;;;;27.05;4.45;;;5.30;99.90;;;;;;5110211;28;20228;-67
2022/01/30 15:06:23;;;;;;;32.58;6.07;;;5.40;99.90;;;;;;5110290;28;20189;-67
2022/01/30 15:08:49;;;;;;;29.70;5.80;;;5.60;99.90;;;;;;5110143;28;20167;-67
2022/01/30 15:11:15;;;;;;;21.50;5.97;;;5.60;99.90;;;;;;5106988;28;20572;-67
2022/01/30 15:13:41;;;;;;;29.00;5.85;;;5.70;99.90;;;;;;5096311;28;20174;-67
2022/01/30 15:16:09;;;;;;;19.77;5.05;;;5.70;99.90;;;;;;5096563;28;20171;-67
2022/01/30 15:18:42;;;;;;;24.02;5.55;;;5.60;99.90;;;;;;5096959;28;20171;-68
2022/01/30 15:21:12;;;;;;;19.52;5.97;;;5.50;99.90;;;;;;5096288;28;20234;-68
2022/01/30 15:23:39;;;;;;;29.90;5.30;;;5.40;99.90;;;;;;5096374;28;20160;-68
2022/01/30 15:26:05;;;;;;;25.83;5.07;;;5.20;99.90;;;;;;5095141;28;20179;-69
2022/01/30 15:28:31;;;;;;;27.10;4.72;;;5.20;99.90;;;;;;5096234;28;20168;-68
2022/01/30 15:30:56;;;;;;;25.27;4.95;;;5.20;99.90;;;;;;5096078;28;20242;-68
2022/01/30 15:33:22;;;;;;;26.67;5.47;;;5.10;99.90;;;;;;5096157;28;20167;-68
2022/01/30 15:35:49;;;;;;;20.27;6.65;;;5.00;99.90;;;;;;5096114;28;20171;-68
2022/01/30 15:38:15;;;;;;;24.90;5.43;;;5.00;99.90;;;;;;5094835;28;20180;-68
2022/01/30 15:40:41;;;;;;;27.38;4.78;;;4.90;99.90;;;;;;5094685;28;20208;-68
2022/01/30 15:43:08;;;;;;;23.70;6.65;;;4.90;99.90;;;;;;5096041;28;20624;-69
2022/01/30 15:51:05;;;;;;;26.52;5.85;;;4.70;99.90;;;;;;5095886;28;20198;-68
2022/01/30 15:53:30;;;;;;;26.10;5.68;;;4.70;99.90;;;;;;5095720;28;20518;-69
2022/01/30 15:55:56;;;;;;;29.17;6.30;;;4.70;99.90;;;;;;5095743;28;20176;-69
2022/01/30 15:58:22;;;;;;;31.60;5.85;;;4.60;99.90;;;;;;5094409;28;20184;-69
